sensor_id;sensor_type;location;lat;lon;timestamp;P1;durP1;ratioP1;P2;durP2;ratioP2
8714;SDS011;4394;51.208;8.904;2022-08-01T00:00:43;3.13;;;2.90;;
8714;SDS011;4394;51.208;8.904;2022-08-01T00:03:31;3.20;;;2.90;;
8714;SDS011;4394;51.208;8.904;2022-08-01T00:06:19;3.13;;;2.87;;
8714;SDS011;4394;51.208;8.904;2022-08-01T00:09:07;3.27;;;2.97;;
8714;SDS011;4394;51.208;8.904;2022-08-01T00:12:09;4.27;;;3.13;;
8714;SDS011;4394;51.208;8.904;2022-08-01T00:14:58;3.73;;;3.30;;
8714;SDS011;4394;51.208;8.904;2022-08-01T00:17:46;3.93;;;3.57;;
8714;SDS011;4394;51.208;8.904;2022-08-01T00:20:34;3.77;;;3.10;;
8714;SDS011;4394;51.208;8.904;2022-08-01T00:23:22;4.07;;;2.97;;
8714;SDS011;4394;51.208;8.904;2022-08-01T00:26:10;3.90;;;3.60;;
8714;SDS011;4394;51.208;8.904;2022-08-01T00:28:58;5.00;;;3.90;;
8714;SDS011;4394;51.208;8.904;2022-08-01T00:31:48;4.20;;;3.63;;
8714;SDS011;4394;51.208;8.904;2022-08-01T00:34:36;4.47;;;3.87;;
8714;SDS011;4394;51.208;8.904;2022-08-01T00:37:23;5.47;;;4.23;;
8714;SDS011;4394;51.208;8.904;2022-08-01T00:40:11;4.57;;;4.13;;
8714;SDS011;4394;51.208;8.904;2022-08-01T00:43:00;5.20;;;4.70;;
8714;SDS011;4394;51.208;8.904;2022-08-01T00:45:48;5.20;;;4.70;;
8714;SDS011;4394;51.208;8.904;2022-08-01T00:48:37;5.20;;;4.70;;
8714;SDS011;4394;51.208;8.904;2022-08-01T00:51:25;5.50;;;5.00;;
8714;SDS011;4394;51.208;8.904;2022-08-01T00:54:14;6.20;;;5.30;;
8714;SDS011;4394;51.208;8.904;2022-08-01T00:57:02;6.20;;;4.73;;
8714;SDS011;4394;51.208;8.904;2022-08-01T00:59:55;6.03;;;5.37;;
8714;SDS011;4394;51.208;8.904;2022-08-01T01:02:44;5.23;;;4.73;;
8714;SDS011;4394;51.208;8.904;2022-08-01T01:05:43;5.70;;;5.10;;
8714;SDS011;4394;51.208;8.904;2022-08-01T01:08:38;5.07;;;4.57;;
8714;SDS011;4394;51.208;8.904;2022-08-01T01:11:31;5.57;;;5.07;;
8714;SDS011;4394;51.208;8.904;2022-08-01T01:14:29;5.67;;;4.67;;
8714;SDS011;4394;51.208;8.904;2022-08-01T01:17:22;5.53;;;5.03;;
8714;SDS011;4394;51.208;8.904;2022-08-01T01:20:37;6.53;;;5.50;;
8714;SDS011;4394;51.208;8.904;2022-08-01T01:23:34;6.80;;;5.83;;
8714;SDS011;4394;51.208;8.904;2022-08-01T01:26:36;8.23;;;6.17;;
8714;SDS011;4394;51.208;8.904;2022-08-01T01:29:32;7.23;;;6.27;;
8714;SDS011;4394;51.208;8.904;2022-08-01T01:32:43;9.00;;;7.23;;
8714;SDS011;4394;51.208;8.904;2022-08-01T01:35:34;8.87;;;6.73;;
8714;SDS011;4394;51.208;8.904;2022-08-01T01:38:26;8.67;;;7.33;;
8714;SDS011;4394;51.208;8.904;2022-08-01T01:41:19;8.17;;;7.33;;
8714;SDS011;4394;51.208;8.904;2022-08-01T01:44:08;10.63;;;7.77;;
8714;SDS011;4394;51.208;8.904;2022-08-01T01:46:59;10.97;;;8.17;;
8714;SDS011;4394;51.208;8.904;2022-08-01T01:49:47;9.00;;;7.80;;
8714;SDS011;4394;51.208;8.904;2022-08-01T01:52:37;8.53;;;7.30;;
8714;SDS011;4394;51.208;8.904;2022-08-01T01:55:26;9.63;;;7.73;;
8714;SDS011;4394;51.208;8.904;2022-08-01T01:58:15;7.87;;;7.07;;
8714;SDS011;4394;51.208;8.904;2022-08-01T02:01:05;8.27;;;7.27;;
8714;SDS011;4394;51.208;8.904;2022-08-01T02:04:01;7.33;;;6.60;;
8714;SDS011;4394;51.208;8.904;2022-08-01T02:06:50;8.07;;;7.27;;
8714;SDS011;4394;51.208;8.904;2022-08-01T02:09:40;7.77;;;6.97;;
8714;SDS011;4394;51.208;8.904;2022-08-01T02:12:30;8.30;;;6.60;;
8714;SDS011;4394;51.208;8.904;2022-08-01T02:15:20;7.37;;;6.67;;
8714;SDS011;4394;51.208;8.904;2022-08-01T02:18:10;6.83;;;6.10;;
8714;SDS011;4394;51.208;8.904;2022-08-01T02:21:00;6.53;;;5.93;;
8714;SDS011;4394;51.208;8.904;2022-08-01T02:23:52;8.37;;;5.70;;
8714;SDS011;4394;51.208;8.904;2022-08-01T02:26:42;6.40;;;5.57;;
8714;SDS011;4394;51.208;8.904;2022-08-01T02:29:36;6.43;;;5.60;;
8714;SDS011;4394;51.208;8.904;2022-08-01T02:32:30;7.47;;;5.87;;
8714;SDS011;4394;51.208;8.904;2022-08-01T02:35:20;6.57;;;5.80;;
8714;SDS011;4394;51.208;8.904;2022-08-01T02:38:15;7.47;;;6.13;;
8714;SDS011;4394;51.208;8.904;2022-08-01T02:41:06;7.43;;;5.63;;
8714;SDS011;4394;51.208;8.904;2022-08-01T02:43:56;5.67;;;4.90;;
8714;SDS011;4394;51.208;8.904;2022-08-01T02:46:49;6.03;;;5.43;;
8714;SDS011;4394;51.208;8.904;2022-08-01T02:49:41;7.07;;;5.30;;
8714;SDS011;4394;51.208;8.904;2022-08-01T02:52:38;5.57;;;5.07;;
8714;SDS011;4394;51.208;8.904;2022-08-01T02:55:30;6.80;;;5.33;;
8714;SDS011;4394;51.208;8.904;2022-08-01T02:58:20;7.20;;;5.30;;
8714;SDS011;4394;51.208;8.904;2022-08-01T03:01:15;5.63;;;5.03;;
8714;SDS011;4394;51.208;8.904;2022-08-01T03:04:05;7.40;;;5.40;;
8714;SDS011;4394;51.208;8.904;2022-08-01T03:06:54;5.37;;;4.87;;
8714;SDS011;4394;51.208;8.904;2022-08-01T03:09:45;5.87;;;4.87;;
8714;SDS011;4394;51.208;8.904;2022-08-01T03:12:36;5.50;;;5.00;;
8714;SDS011;4394;51.208;8.904;2022-08-01T03:15:26;4.97;;;4.47;;
8714;SDS011;4394;51.208;8.904;2022-08-01T03:18:17;5.00;;;4.50;;
8714;SDS011;4394;51.208;8.904;2022-08-01T03:21:05;5.97;;;4.50;;
8714;SDS011;4394;51.208;8.904;2022-08-01T03:23:56;4.47;;;3.87;;
8714;SDS011;4394;51.208;8.904;2022-08-01T03:26:46;4.87;;;4.37;;
8714;SDS011;4394;51.208;8.904;2022-08-01T03:29:37;5.33;;;4.30;;
8714;SDS011;4394;51.208;8.904;2022-08-01T03:32:27;4.40;;;4.00;;
8714;SDS011;4394;51.208;8.904;2022-08-01T03:35:17;4.37;;;3.97;;
8714;SDS011;4394;51.208;8.904;2022-08-01T03:38:05;4.00;;;3.60;;
8714;SDS011;4394;51.208;8.904;2022-08-01T03:41:02;3.43;;;3.13;;
8714;SDS011;4394;51.208;8.904;2022-08-01T03:43:57;4.87;;;3.53;;
8714;SDS011;4394;51.208;8.904;2022-08-01T03:46:51;4.00;;;3.60;;
8714;SDS011;4394;51.208;8.904;2022-08-01T03:49:45;3.47;;;3.10;;
8714;SDS011;4394;51.208;8.904;2022-08-01T03:52:35;3.77;;;3.43;;
8714;SDS011;4394;51.208;8.904;2022-08-01T03:55:26;5.40;;;3.70;;
8714;SDS011;4394;51.208;8.904;2022-08-01T03:58:15;4.00;;;3.40;;
8714;SDS011;4394;51.208;8.904;2022-08-01T04:01:04;3.83;;;3.43;;
8714;SDS011;4394;51.208;8.904;2022-08-01T04:04:02;3.73;;;3.43;;
8714;SDS011;4394;51.208;8.904;2022-08-01T04:06:52;3.87;;;3.47;;
8714;SDS011;4394;51.208;8.904;2022-08-01T04:09:41;3.67;;;3.27;;
8714;SDS011;4394;51.208;8.904;2022-08-01T04:12:29;3.60;;;3.20;;
8714;SDS011;4394;51.208;8.904;2022-08-01T04:15:17;3.80;;;3.30;;
8714;SDS011;4394;51.208;8.904;2022-08-01T04:18:06;3.77;;;3.30;;
8714;SDS011;4394;51.208;8.904;2022-08-01T04:20:55;6.00;;;3.43;;
8714;SDS011;4394;51.208;8.904;2022-08-01T04:23:44;3.90;;;3.50;;
8714;SDS011;4394;51.208;8.904;2022-08-01T04:26:37;3.50;;;3.10;;
8714;SDS011;4394;51.208;8.904;2022-08-01T04:29:28;3.87;;;3.03;;
8714;SDS011;4394;51.208;8.904;2022-08-01T04:32:19;4.10;;;3.70;;
8714;SDS011;4394;51.208;8.904;2022-08-01T04:35:09;3.20;;;2.90;;
8714;SDS011;4394;51.208;8.904;2022-08-01T04:38:24;8.43;;;3.30;;
8714;SDS011;4394;51.208;8.904;2022-08-01T04:41:14;3.67;;;3.33;;
8714;SDS011;4394;51.208;8.904;2022-08-01T04:44:03;4.87;;;3.47;;
8714;SDS011;4394;51.208;8.904;2022-08-01T04:46:53;3.87;;;2.97;;
8714;SDS011;4394;51.208;8.904;2022-08-01T04:49:43;4.43;;;3.37;;
8714;SDS011;4394;51.208;8.904;2022-08-01T04:52:34;4.60;;;3.83;;
8714;SDS011;4394;51.208;8.904;2022-08-01T04:55:24;4.93;;;3.83;;
8714;SDS011;4394;51.208;8.904;2022-08-01T04:58:12;6.73;;;3.93;;
8714;SDS011;4394;51.208;8.904;2022-08-01T05:01:04;7.67;;;5.63;;
8714;SDS011;4394;51.208;8.904;2022-08-01T05:03:52;7.23;;;4.90;;
8714;SDS011;4394;51.208;8.904;2022-08-01T05:06:40;6.20;;;4.97;;
8714;SDS011;4394;51.208;8.904;2022-08-01T05:09:28;6.70;;;5.53;;
8714;SDS011;4394;51.208;8.904;2022-08-01T05:12:18;6.93;;;5.70;;
8714;SDS011;4394;51.208;8.904;2022-08-01T05:15:07;7.13;;;5.83;;
8714;SDS011;4394;51.208;8.904;2022-08-01T05:18:01;8.80;;;6.23;;
8714;SDS011;4394;51.208;8.904;2022-08-01T05:20:49;9.40;;;6.00;;
8714;SDS011;4394;51.208;8.904;2022-08-01T05:23:36;7.57;;;5.80;;
8714;SDS011;4394;51.208;8.904;2022-08-01T05:26:28;7.50;;;6.43;;
8714;SDS011;4394;51.208;8.904;2022-08-01T05:29:18;7.80;;;6.40;;
8714;SDS011;4394;51.208;8.904;2022-08-01T05:32:06;7.33;;;6.57;;
8714;SDS011;4394;51.208;8.904;2022-08-01T05:34:54;7.30;;;5.83;;
8714;SDS011;4394;51.208;8.904;2022-08-01T05:37:42;8.93;;;7.20;;
8714;SDS011;4394;51.208;8.904;2022-08-01T05:40:30;7.77;;;6.13;;
8714;SDS011;4394;51.208;8.904;2022-08-01T05:43:19;7.40;;;6.33;;
8714;SDS011;4394;51.208;8.904;2022-08-01T05:46:14;6.03;;;5.20;;
8714;SDS011;4394;51.208;8.904;2022-08-01T05:49:03;6.90;;;5.57;;
8714;SDS011;4394;51.208;8.904;2022-08-01T05:51:52;7.27;;;5.33;;
8714;SDS011;4394;51.208;8.904;2022-08-01T05:54:40;6.70;;;5.07;;
8714;SDS011;4394;51.208;8.904;2022-08-01T05:57:27;7.07;;;5.50;;
8714;SDS011;4394;51.208;8.904;2022-08-01T06:00:15;5.97;;;5.37;;
8714;SDS011;4394;51.208;8.904;2022-08-01T06:03:05;6.23;;;4.93;;
8714;SDS011;4394;51.208;8.904;2022-08-01T06:05:53;9.40;;;6.13;;
8714;SDS011;4394;51.208;8.904;2022-08-01T06:08:41;6.10;;;4.73;;
8714;SDS011;4394;51.208;8.904;2022-08-01T06:11:29;6.97;;;5.67;;
8714;SDS011;4394;51.208;8.904;2022-08-01T06:14:17;7.20;;;4.90;;
8714;SDS011;4394;51.208;8.904;2022-08-01T06:17:05;9.33;;;5.63;;
8714;SDS011;4394;51.208;8.904;2022-08-01T06:19:54;5.80;;;5.20;;
8714;SDS011;4394;51.208;8.904;2022-08-01T06:22:42;7.67;;;5.30;;
8714;SDS011;4394;51.208;8.904;2022-08-01T06:25:37;6.13;;;5.20;;
8714;SDS011;4394;51.208;8.904;2022-08-01T06:28:25;6.70;;;5.50;;
8714;SDS011;4394;51.208;8.904;2022-08-01T06:31:13;8.13;;;5.60;;
8714;SDS011;4394;51.208;8.904;2022-08-01T06:34:01;6.77;;;5.53;;
8714;SDS011;4394;51.208;8.904;2022-08-01T06:36:51;6.90;;;6.03;;
8714;SDS011;4394;51.208;8.904;2022-08-01T06:39:39;8.17;;;5.50;;
8714;SDS011;4394;51.208;8.904;2022-08-01T06:42:27;8.50;;;7.03;;
8714;SDS011;4394;51.208;8.904;2022-08-01T06:45:17;7.73;;;6.67;;
8714;SDS011;4394;51.208;8.904;2022-08-01T06:48:08;9.07;;;6.47;;
8714;SDS011;4394;51.208;8.904;2022-08-01T06:50:56;8.60;;;6.73;;
8714;SDS011;4394;51.208;8.904;2022-08-01T06:53:56;7.77;;;6.20;;
8714;SDS011;4394;51.208;8.904;2022-08-01T06:56:44;7.17;;;6.33;;
8714;SDS011;4394;51.208;8.904;2022-08-01T06:59:32;7.17;;;5.97;;
8714;SDS011;4394;51.208;8.904;2022-08-01T07:02:20;7.73;;;6.40;;
8714;SDS011;4394;51.208;8.904;2022-08-01T07:05:08;8.03;;;6.60;;
8714;SDS011;4394;51.208;8.904;2022-08-01T07:07:56;7.77;;;6.47;;
8714;SDS011;4394;51.208;8.904;2022-08-01T07:10:46;8.33;;;7.00;;
8714;SDS011;4394;51.208;8.904;2022-08-01T07:13:34;8.93;;;6.90;;
8714;SDS011;4394;51.208;8.904;2022-08-01T07:16:31;7.17;;;5.80;;
8714;SDS011;4394;51.208;8.904;2022-08-01T07:19:19;9.37;;;6.90;;
8714;SDS011;4394;51.208;8.904;2022-08-01T07:22:06;9.20;;;6.50;;
8714;SDS011;4394;51.208;8.904;2022-08-01T07:24:56;8.40;;;6.10;;
8714;SDS011;4394;51.208;8.904;2022-08-01T07:27:45;6.77;;;5.87;;
8714;SDS011;4394;51.208;8.904;2022-08-01T07:30:33;6.67;;;5.50;;
8714;SDS011;4394;51.208;8.904;2022-08-01T07:33:21;6.80;;;5.30;;
8714;SDS011;4394;51.208;8.904;2022-08-01T07:36:09;6.07;;;5.47;;
8714;SDS011;4394;51.208;8.904;2022-08-01T07:38:57;5.40;;;4.40;;
8714;SDS011;4394;51.208;8.904;2022-08-01T07:41:46;6.73;;;4.70;;
8714;SDS011;4394;51.208;8.904;2022-08-01T07:44:54;5.77;;;4.50;;
8714;SDS011;4394;51.208;8.904;2022-08-01T07:47:42;7.53;;;5.40;;
8714;SDS011;4394;51.208;8.904;2022-08-01T07:50:32;5.50;;;5.00;;
8714;SDS011;4394;51.208;8.904;2022-08-01T07:53:20;5.07;;;4.57;;
8714;SDS011;4394;51.208;8.904;2022-08-01T07:56:08;7.00;;;4.50;;
8714;SDS011;4394;51.208;8.904;2022-08-01T07:58:56;4.67;;;3.97;;
8714;SDS011;4394;51.208;8.904;2022-08-01T08:01:45;4.73;;;4.27;;
8714;SDS011;4394;51.208;8.904;2022-08-01T08:04:33;4.50;;;4.10;;
8714;SDS011;4394;51.208;8.904;2022-08-01T08:07:21;4.30;;;3.80;;
8714;SDS011;4394;51.208;8.904;2022-08-01T08:10:09;5.33;;;3.83;;
8714;SDS011;4394;51.208;8.904;2022-08-01T08:12:58;5.10;;;4.50;;
8714;SDS011;4394;51.208;8.904;2022-08-01T08:15:47;5.67;;;4.30;;
8714;SDS011;4394;51.208;8.904;2022-08-01T08:18:36;4.97;;;4.47;;
8714;SDS011;4394;51.208;8.904;2022-08-01T08:21:24;5.00;;;4.40;;
8714;SDS011;4394;51.208;8.904;2022-08-01T08:24:13;4.97;;;4.57;;
8714;SDS011;4394;51.208;8.904;2022-08-01T08:27:12;5.30;;;4.80;;
8714;SDS011;4394;51.208;8.904;2022-08-01T08:30:00;5.07;;;4.57;;
8714;SDS011;4394;51.208;8.904;2022-08-01T08:32:49;4.70;;;4.30;;
8714;SDS011;4394;51.208;8.904;2022-08-01T08:35:39;5.13;;;4.63;;
8714;SDS011;4394;51.208;8.904;2022-08-01T08:38:39;5.03;;;4.60;;
8714;SDS011;4394;51.208;8.904;2022-08-01T08:41:28;6.57;;;5.23;;
8714;SDS011;4394;51.208;8.904;2022-08-01T08:44:23;4.97;;;4.47;;
8714;SDS011;4394;51.208;8.904;2022-08-01T08:47:11;5.80;;;5.20;;
8714;SDS011;4394;51.208;8.904;2022-08-01T08:50:05;5.40;;;4.90;;
8714;SDS011;4394;51.208;8.904;2022-08-01T08:52:56;5.17;;;4.67;;
8714;SDS011;4394;51.208;8.904;2022-08-01T08:55:51;5.70;;;5.10;;
8714;SDS011;4394;51.208;8.904;2022-08-01T08:58:42;4.97;;;4.47;;
8714;SDS011;4394;51.208;8.904;2022-08-01T09:01:32;5.90;;;5.30;;
8714;SDS011;4394;51.208;8.904;2022-08-01T09:04:21;5.53;;;4.50;;
8714;SDS011;4394;51.208;8.904;2022-08-01T09:07:11;5.03;;;4.30;;
8714;SDS011;4394;51.208;8.904;2022-08-01T09:10:02;5.80;;;5.20;;
8714;SDS011;4394;51.208;8.904;2022-08-01T09:13:03;5.37;;;4.80;;
8714;SDS011;4394;51.208;8.904;2022-08-01T09:15:55;5.33;;;4.83;;
8714;SDS011;4394;51.208;8.904;2022-08-01T09:18:45;5.83;;;5.33;;
8714;SDS011;4394;51.208;8.904;2022-08-01T09:21:39;6.33;;;4.93;;
8714;SDS011;4394;51.208;8.904;2022-08-01T09:24:58;5.90;;;5.07;;
8714;SDS011;4394;51.208;8.904;2022-08-01T09:27:49;5.80;;;5.20;;
8714;SDS011;4394;51.208;8.904;2022-08-01T09:30:51;5.70;;;5.00;;
8714;SDS011;4394;51.208;8.904;2022-08-01T09:33:48;6.00;;;5.40;;
8714;SDS011;4394;51.208;8.904;2022-08-01T09:36:48;5.03;;;4.53;;
8714;SDS011;4394;51.208;8.904;2022-08-01T09:39:54;5.97;;;5.43;;
8714;SDS011;4394;51.208;8.904;2022-08-01T09:42:44;5.50;;;5.00;;
8714;SDS011;4394;51.208;8.904;2022-08-01T09:45:39;5.00;;;4.60;;
8714;SDS011;4394;51.208;8.904;2022-08-01T09:48:31;5.67;;;5.17;;
8714;SDS011;4394;51.208;8.904;2022-08-01T09:51:27;5.60;;;5.10;;
8714;SDS011;4394;51.208;8.904;2022-08-01T09:54:36;5.60;;;5.10;;
8714;SDS011;4394;51.208;8.904;2022-08-01T09:57:25;6.50;;;5.40;;
8714;SDS011;4394;51.208;8.904;2022-08-01T10:00:16;5.40;;;4.90;;
8714;SDS011;4394;51.208;8.904;2022-08-01T10:03:26;6.00;;;5.03;;
8714;SDS011;4394;51.208;8.904;2022-08-01T10:06:19;5.03;;;4.63;;
8714;SDS011;4394;51.208;8.904;2022-08-01T10:09:10;5.03;;;4.53;;
8714;SDS011;4394;51.208;8.904;2022-08-01T10:12:01;5.30;;;4.80;;
8714;SDS011;4394;51.208;8.904;2022-08-01T10:14:50;5.60;;;5.10;;
8714;SDS011;4394;51.208;8.904;2022-08-01T10:17:40;6.30;;;5.00;;
8714;SDS011;4394;51.208;8.904;2022-08-01T10:20:41;4.87;;;4.47;;
8714;SDS011;4394;51.208;8.904;2022-08-01T10:23:30;4.90;;;4.50;;
8714;SDS011;4394;51.208;8.904;2022-08-01T10:26:26;5.57;;;4.90;;
8714;SDS011;4394;51.208;8.904;2022-08-01T10:29:19;5.20;;;4.70;;
8714;SDS011;4394;51.208;8.904;2022-08-01T10:32:28;5.13;;;4.73;;
8714;SDS011;4394;51.208;8.904;2022-08-01T10:35:17;5.83;;;4.73;;
8714;SDS011;4394;51.208;8.904;2022-08-01T10:38:27;5.20;;;4.70;;
8714;SDS011;4394;51.208;8.904;2022-08-01T10:41:15;5.43;;;4.93;;
8714;SDS011;4394;51.208;8.904;2022-08-01T10:44:07;5.17;;;4.67;;
8714;SDS011;4394;51.208;8.904;2022-08-01T10:46:57;4.80;;;4.40;;
8714;SDS011;4394;51.208;8.904;2022-08-01T10:49:56;5.40;;;4.90;;
8714;SDS011;4394;51.208;8.904;2022-08-01T10:53:09;5.07;;;4.57;;
8714;SDS011;4394;51.208;8.904;2022-08-01T10:56:10;5.00;;;4.50;;
8714;SDS011;4394;51.208;8.904;2022-08-01T10:59:02;4.93;;;4.40;;
8714;SDS011;4394;51.208;8.904;2022-08-01T11:01:57;5.40;;;4.90;;
8714;SDS011;4394;51.208;8.904;2022-08-01T11:04:48;7.33;;;5.10;;
8714;SDS011;4394;51.208;8.904;2022-08-01T11:07:42;5.93;;;5.33;;
8714;SDS011;4394;51.208;8.904;2022-08-01T11:10:37;6.23;;;5.63;;
8714;SDS011;4394;51.208;8.904;2022-08-01T11:20:27;4.37;;;3.90;;
8714;SDS011;4394;51.208;8.904;2022-08-01T11:23:19;4.27;;;3.87;;
8714;SDS011;4394;51.208;8.904;2022-08-01T11:26:13;4.20;;;3.87;;
8714;SDS011;4394;51.208;8.904;2022-08-01T11:29:14;5.40;;;4.07;;
8714;SDS011;4394;51.208;8.904;2022-08-01T11:35:11;4.40;;;4.00;;
8714;SDS011;4394;51.208;8.904;2022-08-01T11:41:14;5.10;;;4.60;;
8714;SDS011;4394;51.208;8.904;2022-08-01T11:44:24;4.87;;;4.43;;
8714;SDS011;4394;51.208;8.904;2022-08-01T11:47:16;5.50;;;4.73;;
8714;SDS011;4394;51.208;8.904;2022-08-01T11:50:06;4.97;;;4.47;;
8714;SDS011;4394;51.208;8.904;2022-08-01T11:53:18;4.37;;;3.97;;
8714;SDS011;4394;51.208;8.904;2022-08-01T11:56:07;3.80;;;3.50;;
8714;SDS011;4394;51.208;8.904;2022-08-01T11:58:58;3.90;;;3.60;;
8714;SDS011;4394;51.208;8.904;2022-08-01T12:01:47;3.83;;;3.53;;
8714;SDS011;4394;51.208;8.904;2022-08-01T12:04:46;4.17;;;3.87;;
8714;SDS011;4394;51.208;8.904;2022-08-01T12:07:36;4.20;;;3.83;;
8714;SDS011;4394;51.208;8.904;2022-08-01T12:10:26;4.60;;;4.20;;
8714;SDS011;4394;51.208;8.904;2022-08-01T12:13:19;4.40;;;4.00;;
8714;SDS011;4394;51.208;8.904;2022-08-01T12:16:09;4.70;;;4.20;;
8714;SDS011;4394;51.208;8.904;2022-08-01T12:18:58;3.73;;;3.43;;
8714;SDS011;4394;51.208;8.904;2022-08-01T12:24:54;3.70;;;3.40;;
8714;SDS011;4394;51.208;8.904;2022-08-01T12:27:43;3.57;;;3.30;;
8714;SDS011;4394;51.208;8.904;2022-08-01T12:30:32;3.73;;;3.43;;
8714;SDS011;4394;51.208;8.904;2022-08-01T12:33:22;4.00;;;3.70;;
8714;SDS011;4394;51.208;8.904;2022-08-01T12:36:11;3.87;;;3.57;;
8714;SDS011;4394;51.208;8.904;2022-08-01T12:39:00;3.90;;;3.60;;
8714;SDS011;4394;51.208;8.904;2022-08-01T12:41:49;3.80;;;3.50;;
8714;SDS011;4394;51.208;8.904;2022-08-01T12:44:37;3.23;;;2.93;;
8714;SDS011;4394;51.208;8.904;2022-08-01T12:47:26;3.87;;;3.57;;
8714;SDS011;4394;51.208;8.904;2022-08-01T12:50:15;3.43;;;3.10;;
8714;SDS011;4394;51.208;8.904;2022-08-01T12:53:07;3.57;;;3.27;;
8714;SDS011;4394;51.208;8.904;2022-08-01T12:56:02;3.10;;;2.90;;
8714;SDS011;4394;51.208;8.904;2022-08-01T12:58:50;3.87;;;3.50;;
8714;SDS011;4394;51.208;8.904;2022-08-01T13:01:40;4.40;;;3.27;;
8714;SDS011;4394;51.208;8.904;2022-08-01T13:04:28;4.07;;;3.67;;
8714;SDS011;4394;51.208;8.904;2022-08-01T13:07:16;3.43;;;3.13;;
8714;SDS011;4394;51.208;8.904;2022-08-01T13:10:06;3.83;;;3.53;;
8714;SDS011;4394;51.208;8.904;2022-08-01T13:12:56;3.80;;;3.40;;
8714;SDS011;4394;51.208;8.904;2022-08-01T13:15:45;3.60;;;3.30;;
8714;SDS011;4394;51.208;8.904;2022-08-01T13:18:34;3.30;;;3.05;;
8714;SDS011;4394;51.208;8.904;2022-08-01T13:21:23;3.40;;;3.20;;
8714;SDS011;4394;51.208;8.904;2022-08-01T13:24:12;3.50;;;3.20;;
8714;SDS011;4394;51.208;8.904;2022-08-01T13:27:02;3.83;;;3.53;;
8714;SDS011;4394;51.208;8.904;2022-08-01T13:29:51;3.43;;;3.23;;
8714;SDS011;4394;51.208;8.904;2022-08-01T13:32:39;3.73;;;3.43;;
8714;SDS011;4394;51.208;8.904;2022-08-01T13:35:29;3.73;;;3.43;;
8714;SDS011;4394;51.208;8.904;2022-08-01T13:38:18;4.10;;;3.67;;
8714;SDS011;4394;51.208;8.904;2022-08-01T13:41:27;3.90;;;3.60;;
8714;SDS011;4394;51.208;8.904;2022-08-01T13:44:17;4.07;;;3.67;;
8714;SDS011;4394;51.208;8.904;2022-08-01T13:47:05;4.17;;;3.83;;
8714;SDS011;4394;51.208;8.904;2022-08-01T13:50:01;3.37;;;3.07;;
8714;SDS011;4394;51.208;8.904;2022-08-01T13:52:50;4.00;;;3.45;;
8714;SDS011;4394;51.208;8.904;2022-08-01T13:55:38;3.80;;;3.50;;
8714;SDS011;4394;51.208;8.904;2022-08-01T13:58:27;3.57;;;3.27;;
8714;SDS011;4394;51.208;8.904;2022-08-01T14:01:18;3.97;;;3.00;;
8714;SDS011;4394;51.208;8.904;2022-08-01T14:04:07;3.67;;;2.80;;
8714;SDS011;4394;51.208;8.904;2022-08-01T14:06:55;2.90;;;2.70;;
8714;SDS011;4394;51.208;8.904;2022-08-01T14:09:44;2.70;;;2.50;;
8714;SDS011;4394;51.208;8.904;2022-08-01T14:12:53;2.60;;;2.40;;
8714;SDS011;4394;51.208;8.904;2022-08-01T14:15:42;3.73;;;2.60;;
8714;SDS011;4394;51.208;8.904;2022-08-01T14:18:33;3.00;;;2.80;;
8714;SDS011;4394;51.208;8.904;2022-08-01T14:21:23;2.60;;;2.40;;
8714;SDS011;4394;51.208;8.904;2022-08-01T14:24:12;2.53;;;2.20;;
8714;SDS011;4394;51.208;8.904;2022-08-01T14:27:00;2.23;;;2.13;;
8714;SDS011;4394;51.208;8.904;2022-08-01T14:29:49;2.87;;;2.40;;
8714;SDS011;4394;51.208;8.904;2022-08-01T14:32:49;2.47;;;2.20;;
8714;SDS011;4394;51.208;8.904;2022-08-01T14:35:41;3.00;;;2.70;;
8714;SDS011;4394;51.208;8.904;2022-08-01T14:38:49;2.90;;;2.70;;
8714;SDS011;4394;51.208;8.904;2022-08-01T14:41:37;2.90;;;2.57;;
8714;SDS011;4394;51.208;8.904;2022-08-01T14:44:27;2.60;;;2.40;;
8714;SDS011;4394;51.208;8.904;2022-08-01T14:47:18;2.60;;;2.40;;
8714;SDS011;4394;51.208;8.904;2022-08-01T14:50:08;2.57;;;2.40;;
8714;SDS011;4394;51.208;8.904;2022-08-01T14:52:59;2.40;;;2.30;;
8714;SDS011;4394;51.208;8.904;2022-08-01T14:55:47;2.57;;;2.37;;
8714;SDS011;4394;51.208;8.904;2022-08-01T14:58:35;2.30;;;2.10;;
8714;SDS011;4394;51.208;8.904;2022-08-01T15:01:23;2.50;;;2.30;;
8714;SDS011;4394;51.208;8.904;2022-08-01T15:04:11;2.60;;;2.00;;
8714;SDS011;4394;51.208;8.904;2022-08-01T15:06:59;2.50;;;2.30;;
8714;SDS011;4394;51.208;8.904;2022-08-01T15:09:48;2.33;;;2.23;;
8714;SDS011;4394;51.208;8.904;2022-08-01T15:12:36;2.10;;;2.00;;
8714;SDS011;4394;51.208;8.904;2022-08-01T15:15:35;2.47;;;2.27;;
8714;SDS011;4394;51.208;8.904;2022-08-01T15:18:25;2.00;;;1.90;;
8714;SDS011;4394;51.208;8.904;2022-08-01T15:21:13;2.43;;;2.23;;
8714;SDS011;4394;51.208;8.904;2022-08-01T15:24:22;1.83;;;1.73;;
8714;SDS011;4394;51.208;8.904;2022-08-01T15:27:11;2.13;;;1.90;;
8714;SDS011;4394;51.208;8.904;2022-08-01T15:29:59;1.93;;;1.83;;
8714;SDS011;4394;51.208;8.904;2022-08-01T15:32:47;2.70;;;1.87;;
8714;SDS011;4394;51.208;8.904;2022-08-01T15:35:36;1.97;;;1.77;;
8714;SDS011;4394;51.208;8.904;2022-08-01T15:38:24;1.70;;;1.60;;
8714;SDS011;4394;51.208;8.904;2022-08-01T15:41:12;2.57;;;2.20;;
8714;SDS011;4394;51.208;8.904;2022-08-01T15:44:02;1.77;;;1.67;;
8714;SDS011;4394;51.208;8.904;2022-08-01T15:46:50;1.73;;;1.63;;
8714;SDS011;4394;51.208;8.904;2022-08-01T15:49:38;1.83;;;1.73;;
8714;SDS011;4394;51.208;8.904;2022-08-01T15:52:26;2.03;;;1.93;;
8714;SDS011;4394;51.208;8.904;2022-08-01T15:55:17;2.10;;;1.87;;
8714;SDS011;4394;51.208;8.904;2022-08-01T15:58:05;1.80;;;1.70;;
8714;SDS011;4394;51.208;8.904;2022-08-01T16:00:58;1.90;;;1.80;;
8714;SDS011;4394;51.208;8.904;2022-08-01T16:03:46;2.23;;;2.13;;
8714;SDS011;4394;51.208;8.904;2022-08-01T16:06:34;3.43;;;1.83;;
8714;SDS011;4394;51.208;8.904;2022-08-01T16:09:23;1.93;;;1.83;;
8714;SDS011;4394;51.208;8.904;2022-08-01T16:12:12;2.30;;;2.20;;
8714;SDS011;4394;51.208;8.904;2022-08-01T16:15:00;2.50;;;2.30;;
8714;SDS011;4394;51.208;8.904;2022-08-01T16:17:49;2.20;;;2.00;;
8714;SDS011;4394;51.208;8.904;2022-08-01T16:20:38;2.40;;;2.20;;
8714;SDS011;4394;51.208;8.904;2022-08-01T16:23:31;1.80;;;1.70;;
8714;SDS011;4394;51.208;8.904;2022-08-01T16:26:19;2.50;;;2.30;;
8714;SDS011;4394;51.208;8.904;2022-08-01T16:29:13;2.13;;;1.93;;
8714;SDS011;4394;51.208;8.904;2022-08-01T16:32:01;2.50;;;2.30;;
8714;SDS011;4394;51.208;8.904;2022-08-01T16:35:11;2.47;;;2.27;;
8714;SDS011;4394;51.208;8.904;2022-08-01T16:37:58;2.13;;;2.03;;
8714;SDS011;4394;51.208;8.904;2022-08-01T16:40:46;1.87;;;1.77;;
8714;SDS011;4394;51.208;8.904;2022-08-01T16:43:34;2.47;;;2.27;;
8714;SDS011;4394;51.208;8.904;2022-08-01T16:46:31;2.20;;;2.00;;
8714;SDS011;4394;51.208;8.904;2022-08-01T16:49:19;2.40;;;2.20;;
8714;SDS011;4394;51.208;8.904;2022-08-01T16:52:08;1.97;;;1.87;;
8714;SDS011;4394;51.208;8.904;2022-08-01T16:54:57;2.70;;;1.90;;
8714;SDS011;4394;51.208;8.904;2022-08-01T16:57:45;2.07;;;1.93;;
8714;SDS011;4394;51.208;8.904;2022-08-01T17:00:33;1.70;;;1.60;;
8714;SDS011;4394;51.208;8.904;2022-08-01T17:03:21;1.60;;;1.50;;
8714;SDS011;4394;51.208;8.904;2022-08-01T17:06:29;2.13;;;1.93;;
8714;SDS011;4394;51.208;8.904;2022-08-01T17:09:21;1.80;;;1.70;;
8714;SDS011;4394;51.208;8.904;2022-08-01T17:12:10;1.83;;;1.60;;
8714;SDS011;4394;51.208;8.904;2022-08-01T17:15:07;1.80;;;1.70;;
8714;SDS011;4394;51.208;8.904;2022-08-01T17:17:56;1.80;;;1.70;;
8714;SDS011;4394;51.208;8.904;2022-08-01T17:20:44;1.73;;;1.63;;
8714;SDS011;4394;51.208;8.904;2022-08-01T17:23:33;1.90;;;1.80;;
8714;SDS011;4394;51.208;8.904;2022-08-01T17:26:23;1.93;;;1.83;;
8714;SDS011;4394;51.208;8.904;2022-08-01T17:29:11;1.60;;;1.50;;
8714;SDS011;4394;51.208;8.904;2022-08-01T17:31:59;1.60;;;1.50;;
8714;SDS011;4394;51.208;8.904;2022-08-01T17:34:47;1.77;;;1.50;;
8714;SDS011;4394;51.208;8.904;2022-08-01T17:37:36;1.17;;;1.17;;
8714;SDS011;4394;51.208;8.904;2022-08-01T17:40:24;1.50;;;1.40;;
8714;SDS011;4394;51.208;8.904;2022-08-01T17:43:27;1.70;;;1.60;;
8714;SDS011;4394;51.208;8.904;2022-08-01T17:46:15;1.70;;;1.60;;
8714;SDS011;4394;51.208;8.904;2022-08-01T17:49:04;1.70;;;1.60;;
8714;SDS011;4394;51.208;8.904;2022-08-01T17:51:52;2.47;;;1.40;;
8714;SDS011;4394;51.208;8.904;2022-08-01T17:54:41;2.50;;;1.43;;
8714;SDS011;4394;51.208;8.904;2022-08-01T17:57:29;1.60;;;1.30;;
8714;SDS011;4394;51.208;8.904;2022-08-01T18:00:18;1.50;;;1.17;;